createdAt,value
2023-05-12T00:00:52.021Z,7.47
2023-05-12T00:03:20.121Z,6.83
2023-05-12T00:05:48.206Z,7.23
2023-05-12T00:08:16.143Z,7.43
2023-05-12T00:10:44.202Z,6.80
2023-05-12T00:13:12.323Z,7.33
2023-05-12T00:15:40.499Z,7.77
2023-05-12T00:18:09.857Z,7.43
2023-05-12T00:20:37.895Z,7.53
2023-05-12T00:23:05.868Z,7.37
2023-05-12T00:25:33.888Z,8.23
2023-05-12T00:28:01.862Z,7.73
2023-05-12T00:30:29.862Z,7.77
2023-05-12T00:32:58.754Z,7.47
2023-05-12T00:35:28.256Z,7.80
2023-05-12T00:37:56.219Z,8.33
2023-05-12T00:40:24.206Z,7.77
2023-05-12T00:42:52.191Z,7.80
2023-05-12T00:45:20.598Z,7.27
2023-05-12T00:47:48.654Z,8.03
2023-05-12T00:50:16.955Z,6.93
2023-05-12T00:52:47.780Z,7.07
2023-05-12T00:55:16.252Z,7.03
2023-05-12T00:57:44.768Z,7.93
2023-05-12T01:00:14.071Z,7.83
2023-05-12T01:02:42.187Z,7.93
2023-05-12T01:05:11.120Z,7.93
2023-05-12T01:07:40.734Z,7.83
2023-05-12T01:10:20.190Z,7.17
2023-05-12T01:12:48.650Z,7.30
2023-05-12T01:15:16.862Z,7.80
2023-05-12T01:17:52.874Z,7.80
2023-05-12T01:20:24.620Z,6.93
2023-05-12T01:22:53.532Z,7.97
2023-05-12T01:25:25.018Z,7.37
2023-05-12T01:27:54.982Z,7.73
2023-05-12T01:30:24.070Z,8.17
2023-05-12T01:32:52.842Z,8.00
2023-05-12T01:35:20.920Z,7.37
2023-05-12T01:37:48.917Z,7.90
2023-05-12T01:40:18.095Z,7.27
2023-05-12T01:42:46.247Z,7.63
2023-05-12T01:45:15.618Z,7.60
2023-05-12T01:47:43.662Z,7.53
2023-05-12T01:50:12.088Z,7.47
2023-05-12T01:52:40.086Z,8.00
2023-05-12T01:55:09.159Z,7.33
2023-05-12T01:57:37.341Z,6.83
2023-05-12T02:00:06.416Z,7.73
2023-05-12T02:02:35.789Z,7.80
2023-05-12T02:05:03.811Z,7.90
2023-05-12T02:07:31.987Z,7.77
2023-05-12T02:09:59.937Z,7.80
2023-05-12T02:12:27.979Z,8.17
2023-05-12T02:14:56.208Z,7.60
2023-05-12T02:17:25.188Z,7.70
2023-05-12T02:19:54.647Z,8.10
2023-05-12T02:22:22.606Z,7.80
2023-05-12T02:24:50.601Z,8.00
2023-05-12T02:27:18.667Z,8.37
2023-05-12T02:29:46.830Z,8.33
2023-05-12T02:32:14.871Z,7.50
2023-05-12T02:34:42.852Z,7.10
2023-05-12T02:37:12.241Z,8.33
2023-05-12T02:39:40.348Z,8.27
2023-05-12T02:42:08.834Z,7.60
2023-05-12T02:44:36.809Z,8.33
2023-05-12T02:47:05.086Z,8.43
2023-05-12T02:49:33.151Z,9.00
2023-05-12T02:52:01.082Z,9.10
2023-05-12T02:54:30.401Z,8.53
2023-05-12T02:56:58.349Z,8.73
2023-05-12T02:59:26.449Z,8.70
2023-05-12T03:01:54.502Z,8.33
2023-05-12T03:04:22.509Z,9.17
2023-05-12T03:06:50.577Z,8.63
2023-05-12T03:09:18.578Z,8.73
2023-05-12T03:11:47.871Z,9.43
2023-05-12T03:14:15.916Z,9.03
2023-05-12T03:16:43.970Z,8.63
2023-05-12T03:19:12.104Z,9.17
2023-05-12T03:21:40.430Z,9.27
2023-05-12T03:24:08.785Z,8.73
2023-05-12T03:26:36.773Z,9.30
2023-05-12T03:29:06.111Z,8.97
2023-05-12T03:31:34.121Z,9.17
2023-05-12T03:34:02.123Z,8.60
2023-05-12T03:36:30.104Z,8.47
2023-05-12T03:38:58.116Z,8.90
2023-05-12T03:41:26.102Z,8.60
2023-05-12T03:43:54.102Z,8.80
2023-05-12T03:46:24.273Z,9.00
2023-05-12T03:48:52.408Z,9.30
2023-05-12T03:51:20.618Z,9.20
2023-05-12T03:53:48.621Z,8.93
2023-05-12T03:56:17.028Z,10.07
2023-05-12T03:58:46.537Z,9.90
2023-05-12T04:01:14.683Z,8.60
2023-05-12T04:03:44.085Z,9.33
2023-05-12T04:06:12.201Z,9.17
2023-05-12T04:08:42.013Z,9.73
2023-05-12T04:11:10.744Z,9.07
2023-05-12T04:13:38.877Z,9.00
2023-05-12T04:16:07.236Z,9.07
2023-05-12T04:18:35.918Z,8.90
2023-05-12T04:21:05.575Z,9.33
2023-05-12T04:23:33.568Z,8.43
2023-05-12T04:26:05.205Z,9.03
2023-05-12T04:28:33.265Z,8.93
2023-05-12T04:31:04.652Z,9.07
2023-05-12T04:33:32.829Z,8.50
2023-05-12T04:36:00.936Z,8.87
2023-05-12T04:38:30.296Z,8.10
2023-05-12T04:41:00.031Z,8.20
2023-05-12T04:46:00.376Z,8.70
2023-05-12T04:48:29.062Z,8.97
2023-05-12T04:50:59.467Z,8.30
2023-05-12T04:53:27.540Z,8.43
2023-05-12T04:55:56.877Z,8.83
2023-05-12T04:58:24.843Z,8.43
2023-05-12T05:00:53.020Z,8.73
2023-05-12T05:03:21.570Z,9.57
2023-05-12T05:05:50.024Z,8.77
2023-05-12T05:08:18.482Z,9.43
2023-05-12T05:10:46.707Z,10.60
2023-05-12T05:13:16.506Z,8.90
2023-05-12T05:15:51.310Z,9.60
2023-05-12T05:18:21.703Z,8.63
2023-05-12T05:20:57.817Z,8.70
2023-05-12T05:23:26.915Z,8.17
2023-05-12T05:25:54.897Z,8.57
2023-05-12T05:28:24.260Z,8.77
2023-05-12T05:30:52.739Z,8.97
2023-05-12T05:33:21.318Z,8.30
2023-05-12T05:35:49.594Z,8.83
2023-05-12T05:38:17.921Z,8.17
2023-05-12T05:40:52.982Z,8.20
2023-05-12T05:43:24.016Z,8.30
2023-05-12T05:45:53.135Z,9.50
2023-05-12T05:48:21.840Z,9.40
2023-05-12T05:50:50.161Z,7.90
2023-05-12T05:53:19.557Z,8.87
2023-05-12T05:55:48.638Z,8.20
2023-05-12T05:58:16.922Z,7.37
2023-05-12T06:00:46.492Z,8.27
2023-05-12T06:03:16.636Z,8.30
2023-05-12T06:05:44.846Z,8.00
2023-05-12T06:08:13.775Z,8.00
2023-05-12T06:10:42.148Z,7.73
2023-05-12T06:13:10.238Z,7.57
2023-05-12T06:15:38.536Z,7.30
2023-05-12T06:18:08.130Z,7.53
2023-05-12T06:20:36.225Z,8.13
2023-05-12T06:23:04.225Z,7.50
2023-05-12T06:25:33.270Z,6.97
2023-05-12T06:28:01.235Z,8.20
2023-05-12T06:30:29.309Z,7.73
2023-05-12T06:32:57.438Z,7.60
2023-05-12T06:35:26.955Z,7.20
2023-05-12T06:37:54.907Z,7.77
2023-05-12T06:40:22.920Z,7.67
2023-05-12T06:42:50.964Z,6.77
2023-05-12T06:45:19.209Z,7.43
2023-05-12T06:47:47.700Z,8.10
2023-05-12T06:50:17.041Z,7.10
2023-05-12T06:52:46.904Z,6.90
2023-05-12T06:55:19.890Z,6.67
2023-05-12T06:57:48.202Z,6.87
2023-05-12T07:00:17.143Z,6.70
2023-05-12T07:02:45.300Z,6.23
2023-05-12T07:05:13.470Z,7.00
2023-05-12T07:07:41.559Z,7.40
2023-05-12T07:10:11.686Z,7.40
2023-05-12T07:12:39.787Z,6.75
2023-05-12T07:15:11.025Z,7.00
2023-05-12T07:17:39.133Z,6.68
2023-05-12T07:20:08.859Z,7.43
2023-05-12T07:22:38.816Z,6.60
2023-05-12T07:25:08.061Z,6.87
2023-05-12T07:27:37.584Z,6.43
2023-05-12T07:30:06.807Z,6.20
2023-05-12T07:32:35.296Z,6.77
2023-05-12T07:35:03.677Z,6.55
2023-05-12T07:37:31.830Z,6.37
2023-05-12T07:39:59.918Z,7.55
2023-05-12T07:42:28.003Z,6.80
2023-05-12T07:44:57.388Z,6.65
2023-05-12T07:47:25.436Z,6.60
2023-05-12T07:49:53.531Z,6.40
2023-05-12T07:52:21.512Z,6.40
2023-05-12T07:54:49.626Z,6.15
2023-05-12T07:57:17.764Z,6.25
2023-05-12T07:59:45.969Z,6.60
2023-05-12T08:02:17.227Z,6.60
2023-05-12T08:04:45.396Z,6.82
2023-05-12T08:07:13.479Z,5.70
2023-05-12T08:09:41.437Z,5.88
2023-05-12T08:12:09.952Z,5.95
2023-05-12T08:14:38.406Z,5.75
2023-05-12T08:17:06.851Z,5.85
2023-05-12T08:19:36.274Z,5.90
2023-05-12T08:22:04.441Z,5.50
2023-05-12T08:24:32.512Z,5.93
2023-05-12T08:27:00.555Z,5.30
2023-05-12T08:29:28.657Z,5.47
2023-05-12T08:31:57.431Z,5.20
2023-05-12T08:34:25.699Z,5.47
2023-05-12T08:36:55.436Z,5.25
2023-05-12T08:39:23.728Z,6.07
2023-05-12T08:41:57.922Z,5.50
2023-05-12T08:44:27.222Z,4.95
2023-05-12T08:46:58.158Z,5.30
2023-05-12T08:49:28.220Z,4.97
2023-05-12T08:54:56.999Z,5.82
2023-05-12T08:57:31.497Z,4.90
2023-05-12T09:00:00.337Z,5.43
2023-05-12T09:02:38.045Z,4.80
2023-05-12T09:05:10.062Z,4.53
2023-05-12T09:07:44.931Z,5.15
2023-05-12T09:10:29.920Z,4.97
2023-05-12T09:13:05.057Z,4.68
2023-05-12T09:15:37.398Z,5.03
2023-05-12T09:18:05.889Z,4.60
2023-05-12T09:20:34.784Z,4.50
2023-05-12T09:23:15.218Z,4.63
2023-05-12T09:25:43.241Z,4.85
2023-05-12T09:28:11.537Z,5.57
2023-05-12T09:30:42.460Z,5.25
2023-05-12T09:33:12.836Z,5.18
2023-05-12T09:35:42.540Z,5.22
2023-05-12T09:38:11.783Z,4.95
2023-05-12T09:40:43.134Z,5.80
2023-05-12T09:43:14.379Z,5.10
2023-05-12T09:45:44.229Z,4.70
2023-05-12T09:48:14.211Z,5.47
2023-05-12T09:50:47.623Z,6.88
2023-05-12T09:53:17.385Z,5.22
2023-05-12T09:55:48.074Z,5.40
2023-05-12T09:58:17.633Z,4.70
2023-05-12T10:03:18.737Z,4.53
2023-05-12T10:05:50.454Z,4.47
2023-05-12T10:08:54.150Z,4.63
2023-05-12T10:11:24.002Z,5.05
2023-05-12T10:13:53.133Z,4.47
2023-05-12T10:16:22.187Z,4.07
2023-05-12T10:18:51.729Z,4.53
2023-05-12T10:21:23.086Z,4.32
2023-05-12T10:23:58.308Z,4.32
2023-05-12T10:26:27.830Z,4.07
2023-05-12T10:28:56.120Z,3.90
2023-05-12T10:31:24.968Z,4.10
2023-05-12T10:33:59.627Z,4.15
2023-05-12T10:36:28.027Z,4.63
2023-05-12T10:38:56.559Z,4.47
2023-05-12T10:41:33.132Z,4.80
2023-05-12T10:44:01.381Z,4.60
2023-05-12T10:46:30.739Z,4.93
2023-05-12T10:49:02.396Z,5.13
2023-05-12T10:51:33.085Z,5.00
2023-05-12T10:54:02.503Z,4.85
2023-05-12T10:56:41.633Z,6.68
2023-05-12T10:59:19.051Z,7.75
2023-05-12T11:02:02.552Z,7.05
2023-05-12T11:04:43.162Z,5.95
2023-05-12T11:07:14.301Z,7.10
2023-05-12T11:09:56.836Z,6.35
2023-05-12T11:12:28.715Z,5.82
2023-05-12T11:14:56.858Z,6.07
2023-05-12T11:17:25.587Z,5.13
2023-05-12T11:19:54.793Z,5.68
2023-05-12T11:22:24.177Z,5.10
2023-05-12T11:24:53.532Z,5.38
2023-05-12T11:27:23.968Z,6.57
2023-05-12T11:30:00.318Z,5.18
2023-05-12T11:32:29.700Z,5.00
2023-05-12T11:35:09.998Z,5.45
2023-05-12T11:37:39.055Z,9.40
2023-05-12T11:40:18.089Z,4.82
2023-05-12T11:42:48.798Z,6.32
2023-05-12T11:45:29.248Z,5.78
2023-05-12T11:48:08.898Z,5.25
2023-05-12T11:50:39.983Z,6.13
2023-05-12T11:53:12.318Z,5.90
2023-05-12T11:55:49.274Z,5.80
2023-05-12T11:58:21.970Z,5.75
2023-05-12T12:00:51.610Z,5.30
2023-05-12T12:03:19.775Z,5.65
2023-05-12T12:06:02.239Z,6.00
2023-05-12T12:08:30.520Z,5.60
2023-05-12T12:10:58.940Z,5.95
2023-05-12T12:13:27.735Z,5.90
2023-05-12T12:15:57.216Z,5.18
2023-05-12T12:18:25.322Z,5.70
2023-05-12T12:20:53.386Z,5.63
2023-05-12T12:23:21.444Z,5.55
2023-05-12T12:25:49.399Z,4.82
2023-05-12T12:28:17.423Z,5.18
2023-05-12T12:30:45.461Z,5.30
2023-05-12T12:33:14.964Z,5.68
2023-05-12T12:35:43.215Z,5.43
2023-05-12T12:38:11.317Z,5.40
2023-05-12T12:40:39.279Z,5.18
2023-05-12T12:43:07.445Z,5.32
2023-05-12T12:45:35.508Z,5.20
2023-05-12T12:48:03.893Z,5.30
2023-05-12T12:50:33.660Z,5.40
2023-05-12T12:53:01.730Z,5.68
2023-05-12T12:55:29.890Z,5.20
2023-05-12T12:57:57.972Z,5.18
2023-05-12T13:00:26.951Z,4.93
2023-05-12T13:02:55.076Z,5.15
2023-05-12T13:05:23.549Z,4.82
2023-05-12T13:07:53.014Z,5.57
2023-05-12T13:10:21.103Z,5.68
2023-05-12T13:12:49.135Z,5.13
2023-05-12T13:15:19.237Z,5.20
2023-05-12T13:17:47.593Z,4.95
2023-05-12T13:20:16.501Z,5.13
2023-05-12T13:22:45.598Z,5.50
2023-05-12T13:25:14.921Z,5.53
2023-05-12T13:27:43.039Z,5.55
2023-05-12T13:30:13.541Z,5.10
2023-05-12T13:32:42.012Z,5.10
2023-05-12T13:35:10.826Z,4.75
2023-05-12T13:37:38.844Z,4.68
2023-05-12T13:40:08.260Z,4.75
2023-05-12T13:42:37.853Z,4.85
2023-05-12T13:45:06.864Z,5.00
2023-05-12T13:47:35.132Z,5.15
2023-05-12T13:50:03.229Z,5.15
2023-05-12T13:52:31.176Z,5.38
2023-05-12T13:54:59.182Z,5.45
2023-05-12T13:57:27.140Z,5.20
2023-05-12T13:59:57.829Z,5.47
2023-05-12T14:02:25.916Z,5.50
2023-05-12T14:04:54.034Z,5.30
2023-05-12T14:07:22.059Z,5.20
2023-05-12T14:09:50.023Z,5.28
2023-05-12T14:12:17.997Z,5.55
2023-05-12T14:14:49.851Z,5.28
2023-05-12T14:17:19.561Z,5.22
2023-05-12T14:19:47.614Z,5.25
2023-05-12T14:22:25.275Z,4.93
2023-05-12T14:24:55.694Z,5.60
2023-05-12T14:27:23.862Z,5.28
2023-05-12T14:29:51.969Z,5.22
2023-05-12T14:32:21.367Z,5.40
2023-05-12T14:34:49.332Z,5.90
2023-05-12T14:37:17.459Z,5.53
2023-05-12T14:39:45.429Z,5.10
2023-05-12T14:42:13.402Z,5.15
2023-05-12T14:44:41.410Z,5.68
2023-05-12T14:47:09.417Z,5.07
2023-05-12T14:49:38.775Z,5.13
2023-05-12T14:52:07.293Z,5.30
2023-05-12T14:54:35.408Z,5.20
2023-05-12T14:57:03.670Z,4.95
2023-05-12T14:59:31.856Z,5.22
2023-05-12T15:01:59.876Z,5.20
2023-05-12T15:04:28.210Z,5.20
2023-05-12T15:06:57.591Z,5.13
2023-05-12T15:09:25.569Z,5.35
2023-05-12T15:11:53.532Z,5.18
2023-05-12T15:14:21.842Z,5.05
2023-05-12T15:16:49.893Z,5.68
2023-05-12T15:19:20.710Z,5.50
2023-05-12T15:21:48.842Z,5.32
2023-05-12T15:24:18.232Z,5.10
2023-05-12T15:26:46.291Z,5.20
2023-05-12T15:29:14.710Z,5.22
2023-05-12T15:31:42.767Z,5.30
2023-05-12T15:34:11.125Z,5.03
2023-05-12T15:36:39.057Z,5.35
2023-05-12T15:39:07.101Z,4.85
2023-05-12T15:41:36.471Z,4.90
2023-05-12T15:44:04.498Z,4.97
2023-05-12T15:46:32.501Z,4.97
2023-05-12T15:49:00.572Z,5.20
2023-05-12T15:51:29.879Z,5.10
2023-05-12T15:53:58.044Z,5.13
2023-05-12T15:56:26.173Z,5.03
2023-05-12T15:58:56.758Z,5.30
2023-05-12T16:01:25.033Z,5.40
2023-05-12T16:03:54.564Z,5.25
2023-05-12T16:06:22.894Z,4.65
2023-05-12T16:08:50.853Z,5.40
2023-05-12T16:11:19.246Z,4.90
2023-05-12T16:13:47.254Z,5.10
2023-05-12T16:16:16.737Z,5.53
2023-05-12T16:18:44.814Z,5.05
2023-05-12T16:21:12.814Z,4.90
2023-05-12T16:23:40.770Z,5.38
2023-05-12T16:26:08.965Z,5.70
2023-05-12T16:28:36.987Z,5.35
2023-05-12T16:31:05.134Z,5.65
2023-05-12T16:33:34.541Z,5.30
2023-05-12T16:36:02.587Z,5.30
2023-05-12T16:38:32.390Z,5.10
2023-05-12T16:41:01.640Z,5.35
2023-05-12T16:43:29.625Z,5.05
2023-05-12T16:46:02.081Z,5.25
2023-05-12T16:48:34.285Z,5.22
2023-05-12T16:51:05.703Z,5.38
2023-05-12T16:53:33.826Z,5.20
2023-05-12T16:56:01.910Z,4.63
2023-05-12T16:58:32.175Z,4.88
2023-05-12T17:01:00.878Z,5.40
2023-05-12T17:03:29.295Z,5.00
2023-05-12T17:05:57.442Z,5.70
2023-05-12T17:08:26.860Z,5.43
2023-05-12T17:10:54.851Z,5.30
2023-05-12T17:13:23.221Z,5.30
2023-05-12T17:15:52.551Z,5.70
2023-05-12T17:18:20.574Z,5.78
2023-05-12T17:20:48.548Z,5.65
2023-05-12T17:23:16.683Z,5.75
2023-05-12T17:25:46.010Z,5.60
2023-05-12T17:28:14.327Z,5.45
2023-05-12T17:30:43.049Z,5.45
2023-05-12T17:33:11.498Z,5.45
2023-05-12T17:35:39.643Z,4.93
2023-05-12T17:38:07.901Z,5.45
2023-05-12T17:40:36.023Z,5.50
2023-05-12T17:43:05.408Z,5.10
2023-05-12T17:45:33.631Z,5.90
2023-05-12T17:48:01.869Z,5.35
2023-05-12T17:50:29.858Z,5.55
2023-05-12T17:52:58.089Z,5.32
2023-05-12T17:55:26.042Z,5.40
2023-05-12T17:57:54.657Z,5.75
2023-05-12T18:00:24.977Z,5.93
2023-05-12T18:02:53.114Z,5.20
2023-05-12T18:05:21.647Z,5.50
2023-05-12T18:07:50.214Z,5.82
2023-05-12T18:10:18.632Z,5.55
2023-05-12T18:12:46.956Z,5.60
2023-05-12T18:15:16.936Z,5.53
2023-05-12T18:17:46.481Z,5.60
2023-05-12T18:20:14.673Z,6.15
2023-05-12T18:22:42.665Z,5.75
2023-05-12T18:25:12.920Z,5.68
2023-05-12T18:27:41.067Z,5.60
2023-05-12T18:30:09.756Z,5.13
2023-05-12T18:32:38.112Z,4.93
2023-05-12T18:35:09.466Z,5.43
2023-05-12T18:37:37.413Z,5.57
2023-05-12T18:40:05.937Z,5.47
2023-05-12T18:42:34.937Z,5.53
2023-05-12T18:45:02.951Z,5.18
2023-05-12T18:47:31.035Z,5.18
2023-05-12T18:49:59.165Z,5.95
2023-05-12T18:52:28.513Z,6.15
2023-05-12T18:54:56.525Z,5.65
2023-05-12T18:57:24.552Z,5.45
2023-05-12T18:59:52.584Z,5.68
2023-05-12T19:02:20.813Z,5.90
2023-05-12T19:04:48.896Z,5.40
2023-05-12T19:07:17.157Z,5.90
2023-05-12T19:09:46.849Z,6.15
2023-05-12T19:12:15.059Z,6.63
2023-05-12T19:14:43.191Z,6.35
2023-05-12T19:17:11.865Z,6.32
2023-05-12T19:19:39.892Z,6.53
2023-05-12T19:22:07.829Z,6.20
2023-05-12T19:24:37.974Z,5.82
2023-05-12T19:27:07.595Z,5.60
2023-05-12T19:29:35.552Z,5.55
2023-05-12T19:32:03.678Z,6.07
2023-05-12T19:34:31.775Z,5.72
2023-05-12T19:37:00.855Z,6.25
2023-05-12T19:39:28.974Z,6.07
2023-05-12T19:41:56.951Z,6.65
2023-05-12T19:44:27.010Z,6.68
2023-05-12T19:46:58.781Z,6.00
2023-05-12T19:49:26.905Z,6.32
2023-05-12T19:51:54.886Z,6.00
2023-05-12T19:54:22.856Z,6.05
2023-05-12T19:56:50.835Z,6.00
2023-05-12T19:59:19.228Z,5.95
2023-05-12T20:01:49.331Z,6.35
2023-05-12T20:04:17.359Z,5.78
2023-05-12T20:06:45.570Z,6.20
2023-05-12T20:09:13.600Z,5.97
2023-05-12T20:11:42.065Z,5.68
2023-05-12T20:14:10.031Z,5.93
2023-05-12T20:16:38.359Z,6.50
2023-05-12T20:19:07.881Z,6.82
2023-05-12T20:21:36.012Z,6.60
2023-05-12T20:24:04.069Z,6.40
2023-05-12T20:26:32.055Z,6.57
2023-05-12T20:29:00.965Z,6.63
2023-05-12T20:31:28.963Z,6.65
2023-05-12T20:33:57.856Z,6.47
2023-05-12T20:36:27.248Z,7.28
2023-05-12T20:38:55.179Z,6.22
2023-05-12T20:41:23.142Z,7.10
2023-05-12T20:43:51.106Z,6.78
2023-05-12T20:46:19.344Z,6.40
2023-05-12T20:48:47.401Z,6.20
2023-05-12T20:51:15.788Z,6.63
2023-05-12T20:53:45.166Z,6.67
2023-05-12T20:56:13.286Z,6.35
2023-05-12T20:58:41.342Z,6.43
2023-05-12T21:01:09.474Z,6.80
2023-05-12T21:03:37.580Z,6.57
2023-05-12T21:06:06.906Z,6.67
2023-05-12T21:08:34.921Z,6.40
2023-05-12T21:11:04.753Z,6.63
2023-05-12T21:13:32.664Z,6.40
2023-05-12T21:16:00.710Z,6.45
2023-05-12T21:18:28.733Z,6.47
2023-05-12T21:20:56.689Z,6.50
2023-05-12T21:23:24.760Z,6.20
2023-05-12T21:25:54.035Z,6.43
2023-05-12T21:28:23.369Z,6.30
2023-05-12T21:30:51.373Z,6.43
2023-05-12T21:33:19.358Z,6.18
2023-05-12T21:35:47.397Z,6.40
2023-05-12T21:38:15.380Z,6.88
2023-05-12T21:40:43.655Z,6.23
2023-05-12T21:43:11.658Z,6.63
2023-05-12T21:45:41.024Z,6.50
2023-05-12T21:48:09.104Z,6.80
2023-05-12T21:50:37.191Z,6.28
2023-05-12T21:53:05.210Z,6.85
2023-05-12T21:55:33.157Z,6.43
2023-05-12T21:58:01.133Z,6.80
2023-05-12T22:00:29.121Z,6.67
2023-05-12T22:02:58.523Z,7.03
2023-05-12T22:05:26.721Z,6.50
2023-05-12T22:07:54.613Z,6.27
2023-05-12T22:10:22.748Z,6.57
2023-05-12T22:12:50.823Z,6.53
2023-05-12T22:15:18.894Z,6.50
2023-05-12T22:17:47.725Z,6.67
2023-05-12T22:20:18.421Z,6.72
2023-05-12T22:22:46.518Z,6.07
2023-05-12T22:25:14.486Z,6.55
2023-05-12T22:27:42.476Z,6.40
2023-05-12T22:30:11.915Z,6.10
2023-05-12T22:32:39.888Z,6.67
2023-05-12T22:35:08.997Z,6.78
2023-05-12T22:37:38.461Z,6.70
2023-05-12T22:40:07.970Z,6.57
2023-05-12T22:42:35.973Z,6.83
2023-05-12T22:45:04.850Z,6.77
2023-05-12T22:47:33.333Z,6.60
2023-05-12T22:50:01.731Z,6.77
2023-05-12T22:52:29.762Z,6.17
2023-05-12T22:54:59.049Z,6.90
2023-05-12T22:57:27.025Z,6.13
2023-05-12T22:59:55.085Z,6.57
2023-05-12T23:02:23.120Z,6.37
2023-05-12T23:04:51.089Z,6.30
2023-05-12T23:07:19.119Z,6.70
2023-05-12T23:09:47.078Z,7.18
2023-05-12T23:12:16.373Z,6.10
2023-05-12T23:14:44.359Z,6.90
2023-05-12T23:17:12.356Z,6.50
2023-05-12T23:19:40.899Z,7.00
2023-05-12T23:22:08.844Z,6.90
2023-05-12T23:24:37.373Z,6.95
2023-05-12T23:27:05.881Z,6.30
2023-05-12T23:29:35.228Z,6.70
2023-05-12T23:32:03.270Z,7.00
2023-05-12T23:34:31.775Z,6.27
2023-05-12T23:36:59.722Z,5.83
2023-05-12T23:39:27.710Z,6.90
2023-05-12T23:41:55.667Z,6.60
2023-05-12T23:44:23.619Z,6.43
2023-05-12T23:46:53.042Z,6.53
2023-05-12T23:49:20.993Z,6.67
2023-05-12T23:51:49.034Z,7.13
2023-05-12T23:54:16.998Z,6.87
2023-05-12T23:56:44.940Z,6.70
2023-05-12T23:59:12.884Z,7.07
